createdAt,value
2017-06-27T00:01:30.510Z,23.60
2017-06-27T00:03:58.379Z,23.60
2017-06-27T00:06:26.273Z,23.60
2017-06-27T00:08:53.742Z,23.60
2017-06-27T00:11:22.201Z,23.60
2017-06-27T00:13:49.721Z,23.50
2017-06-27T00:16:19.352Z,23.50
2017-06-27T00:18:46.894Z,23.50
2017-06-27T00:21:14.853Z,23.70
2017-06-27T00:23:43.233Z,23.70
2017-06-27T00:26:10.709Z,23.70
2017-06-27T00:28:38.201Z,23.60
2017-06-27T00:31:05.821Z,23.60
2017-06-27T00:33:35.844Z,23.70
2017-06-27T00:36:03.361Z,23.70
2017-06-27T00:38:30.948Z,23.70
2017-06-27T00:41:00.754Z,23.50
2017-06-27T00:43:28.649Z,23.40
2017-06-27T00:45:57.097Z,23.40
2017-06-27T00:48:24.585Z,23.40
2017-06-27T00:50:52.118Z,23.30
2017-06-27T00:53:20.082Z,23.10
2017-06-27T00:55:47.561Z,23.10
2017-06-27T00:58:15.112Z,23.20
2017-06-27T01:00:42.585Z,23.10
2017-06-27T01:03:11.009Z,23.20
2017-06-27T01:05:38.489Z,23.20
2017-06-27T01:08:06.392Z,23.40
2017-06-27T01:10:33.912Z,23.50
2017-06-27T01:13:01.798Z,23.40
2017-06-27T01:15:29.305Z,23.40
2017-06-27T01:17:58.744Z,23.20
2017-06-27T01:20:26.710Z,23.10
2017-06-27T01:22:54.678Z,23.20
2017-06-27T01:25:22.656Z,23.30
2017-06-27T01:27:50.540Z,23.40
2017-06-27T01:30:18.073Z,23.40
2017-06-27T01:32:46.041Z,23.10
2017-06-27T01:35:14.866Z,23.10
2017-06-27T01:37:42.489Z,23.10
2017-06-27T01:40:10.061Z,23.00
2017-06-27T01:42:37.940Z,23.10
2017-06-27T01:45:05.469Z,23.10
2017-06-27T01:47:35.294Z,23.00
2017-06-27T01:50:03.252Z,23.00
2017-06-27T01:52:31.424Z,22.90
2017-06-27T01:54:59.296Z,22.90
2017-06-27T01:57:28.105Z,22.90
2017-06-27T01:59:55.634Z,22.90
2017-06-27T02:02:23.509Z,23.00
2017-06-27T02:04:51.480Z,22.90
2017-06-27T02:07:19.353Z,22.90
2017-06-27T02:09:47.146Z,22.90
2017-06-27T02:12:14.610Z,22.90
2017-06-27T02:14:42.118Z,22.90
2017-06-27T02:17:10.977Z,22.90
2017-06-27T02:19:38.444Z,22.90
2017-06-27T02:22:05.929Z,22.90
2017-06-27T02:24:33.817Z,22.80
2017-06-27T02:27:01.648Z,22.80
2017-06-27T02:29:29.249Z,22.90
2017-06-27T02:31:56.718Z,22.90
2017-06-27T02:34:24.229Z,22.80
2017-06-27T02:36:51.760Z,22.80
2017-06-27T02:39:19.336Z,22.80
2017-06-27T02:41:47.309Z,22.80
2017-06-27T02:44:17.124Z,22.90
2017-06-27T02:46:45.081Z,22.90
2017-06-27T02:49:13.069Z,22.90
2017-06-27T02:51:40.619Z,22.90
2017-06-27T02:54:08.594Z,22.70
2017-06-27T02:56:38.417Z,22.80
2017-06-27T02:59:05.949Z,22.80
2017-06-27T03:01:35.773Z,23.00
2017-06-27T03:04:03.636Z,23.00
2017-06-27T03:06:31.612Z,23.00
2017-06-27T03:08:59.081Z,23.10
2017-06-27T03:11:26.980Z,23.10
2017-06-27T03:13:54.449Z,23.20
2017-06-27T03:16:21.942Z,23.10
2017-06-27T03:18:49.897Z,23.10
2017-06-27T03:21:17.785Z,23.10
2017-06-27T03:23:45.736Z,23.10
2017-06-27T03:26:15.586Z,23.10
2017-06-27T03:28:43.108Z,23.10
2017-06-27T03:31:12.949Z,23.00
2017-06-27T03:33:43.669Z,23.00
2017-06-27T03:36:11.205Z,23.00
2017-06-27T03:38:39.975Z,23.00
2017-06-27T03:41:07.557Z,23.00
2017-06-27T03:43:35.520Z,22.90
2017-06-27T03:46:03.400Z,22.90
2017-06-27T03:48:31.274Z,22.80
2017-06-27T03:51:00.672Z,22.80
2017-06-27T03:53:28.141Z,22.70
2017-06-27T03:55:55.675Z,22.70
2017-06-27T03:58:23.581Z,22.90
2017-06-27T04:00:51.065Z,22.90
2017-06-27T04:03:18.549Z,22.80
2017-06-27T04:05:48.392Z,22.60
2017-06-27T04:08:15.870Z,22.60
2017-06-27T04:10:43.356Z,22.70
2017-06-27T04:13:10.829Z,22.80
2017-06-27T04:15:38.394Z,22.70
2017-06-27T04:18:07.198Z,22.60
2017-06-27T04:20:34.692Z,22.60
2017-06-27T04:23:02.176Z,22.60
2017-06-27T04:25:29.653Z,22.70
2017-06-27T04:27:57.548Z,22.70
2017-06-27T04:30:25.014Z,22.70
2017-06-27T04:32:52.532Z,22.80
2017-06-27T04:35:20.001Z,22.90
2017-06-27T04:37:47.865Z,22.90
2017-06-27T04:40:15.753Z,23.00
2017-06-27T04:42:43.276Z,23.00
2017-06-27T04:45:11.245Z,22.90
2017-06-27T04:47:38.808Z,22.90
2017-06-27T04:50:06.678Z,23.10
2017-06-27T04:52:34.560Z,23.10
2017-06-27T04:55:02.039Z,23.10
2017-06-27T04:57:29.548Z,23.00
2017-06-27T04:59:57.913Z,23.00
2017-06-27T05:02:25.489Z,23.00
2017-06-27T05:04:54.341Z,22.80
2017-06-27T05:07:21.833Z,22.80
2017-06-27T05:09:49.730Z,22.80
2017-06-27T05:12:17.261Z,22.80
2017-06-27T05:14:47.085Z,22.90
2017-06-27T05:17:14.949Z,22.90
2017-06-27T05:19:42.520Z,22.90
2017-06-27T05:22:10.389Z,22.90
2017-06-27T05:24:37.917Z,22.90
2017-06-27T05:27:05.890Z,22.90
2017-06-27T05:29:33.756Z,23.00
2017-06-27T05:32:01.925Z,23.00
2017-06-27T05:34:29.392Z,23.10
2017-06-27T05:36:58.202Z,22.80
2017-06-27T05:39:25.726Z,22.90
2017-06-27T05:41:53.188Z,22.70
2017-06-27T05:44:21.072Z,22.80
2017-06-27T05:46:48.590Z,22.80
2017-06-27T05:49:16.166Z,22.80
2017-06-27T05:51:43.733Z,22.80
2017-06-27T05:54:11.696Z,22.90
2017-06-27T05:56:39.665Z,22.90
2017-06-27T05:59:07.637Z,22.90
2017-06-27T06:01:35.776Z,22.90
2017-06-27T06:04:03.253Z,22.90
2017-06-27T06:06:30.925Z,22.90
2017-06-27T06:08:58.813Z,22.90
2017-06-27T06:11:26.349Z,23.00
2017-06-27T06:13:54.245Z,22.90
2017-06-27T06:16:21.725Z,22.90
2017-06-27T06:18:49.525Z,22.90
2017-06-27T06:21:17.003Z,22.90
2017-06-27T06:23:44.962Z,22.90
2017-06-27T06:26:12.935Z,22.80
2017-06-27T06:28:40.903Z,22.80
2017-06-27T06:31:08.865Z,22.80
2017-06-27T06:33:36.829Z,22.90
2017-06-27T06:36:04.808Z,22.80
2017-06-27T06:38:32.775Z,22.90
2017-06-27T06:41:02.611Z,23.10
2017-06-27T06:43:30.137Z,23.10
2017-06-27T06:45:58.110Z,23.30
2017-06-27T06:48:25.976Z,23.30
2017-06-27T06:50:53.941Z,23.40
2017-06-27T06:53:22.745Z,23.40
2017-06-27T06:55:50.245Z,23.40
2017-06-27T06:58:17.745Z,23.50
2017-06-27T07:00:45.720Z,23.60
2017-06-27T07:03:14.193Z,23.60
2017-06-27T07:05:43.044Z,23.60
2017-06-27T07:08:11.461Z,23.60
2017-06-27T07:10:39.429Z,23.70
2017-06-27T07:13:07.301Z,23.70
2017-06-27T07:15:35.193Z,23.70
2017-06-27T07:18:02.672Z,23.70
2017-06-27T07:20:31.149Z,23.70
2017-06-27T07:22:58.658Z,23.70
2017-06-27T07:25:28.501Z,23.80
2017-06-27T07:27:55.985Z,23.80
2017-06-27T07:30:23.585Z,23.80
2017-06-27T07:32:51.554Z,23.80
2017-06-27T07:35:19.518Z,23.90
2017-06-27T07:37:47.000Z,23.90
2017-06-27T07:40:14.513Z,23.90
2017-06-27T07:42:41.989Z,24.00
2017-06-27T07:45:11.541Z,24.00
2017-06-27T07:47:39.273Z,24.00
2017-06-27T07:50:07.166Z,24.10
2017-06-27T07:52:34.685Z,24.00
2017-06-27T07:55:02.585Z,24.00
2017-06-27T07:57:30.057Z,24.00
2017-06-27T07:59:57.573Z,24.00
2017-06-27T08:02:25.045Z,24.00
2017-06-27T08:04:52.546Z,24.10
2017-06-27T08:07:20.040Z,24.10
2017-06-27T08:09:49.905Z,24.10
2017-06-27T08:12:17.414Z,24.10
2017-06-27T08:14:45.304Z,24.10
2017-06-27T08:17:12.785Z,24.10
2017-06-27T08:19:40.289Z,24.10
2017-06-27T08:22:09.105Z,24.20
2017-06-27T08:24:36.631Z,24.20
2017-06-27T08:27:05.026Z,24.20
2017-06-27T08:29:32.931Z,24.20
2017-06-27T08:32:00.438Z,24.20
2017-06-27T08:34:29.293Z,24.30
2017-06-27T08:36:56.773Z,24.30
2017-06-27T08:39:24.341Z,24.30
2017-06-27T08:41:51.839Z,24.30
2017-06-27T08:44:21.310Z,24.40
2017-06-27T08:46:49.273Z,24.40
2017-06-27T08:49:17.166Z,24.40
2017-06-27T08:51:45.517Z,24.40
2017-06-27T08:54:13.485Z,24.40
2017-06-27T08:56:41.461Z,24.50
2017-06-27T08:59:09.345Z,24.50
2017-06-27T09:01:36.877Z,24.50
2017-06-27T09:04:04.844Z,24.60
2017-06-27T09:06:32.719Z,24.60
2017-06-27T09:09:00.606Z,24.60
2017-06-27T09:11:28.141Z,24.60
2017-06-27T09:13:56.021Z,24.70
2017-06-27T09:16:23.807Z,24.60
2017-06-27T09:18:51.278Z,24.70
2017-06-27T09:21:20.589Z,24.70
2017-06-27T09:23:48.245Z,24.70
2017-06-27T09:26:15.742Z,24.70
2017-06-27T09:28:43.238Z,24.70
2017-06-27T09:31:10.757Z,24.70
2017-06-27T09:33:39.033Z,24.70
2017-06-27T09:36:06.913Z,24.80
2017-06-27T09:38:34.453Z,24.80
2017-06-27T09:41:04.296Z,24.80
2017-06-27T09:43:31.793Z,24.80
2017-06-27T09:45:59.277Z,24.80
2017-06-27T09:48:26.764Z,24.80
2017-06-27T09:50:54.303Z,24.80
2017-06-27T09:53:22.265Z,24.90
2017-06-27T09:55:50.152Z,24.90
2017-06-27T09:58:17.689Z,24.90
2017-06-27T10:00:45.568Z,24.90
2017-06-27T10:03:13.525Z,24.90
2017-06-27T10:05:41.489Z,24.90
2017-06-27T10:08:09.665Z,24.90
2017-06-27T10:10:37.537Z,25.00
2017-06-27T10:13:05.397Z,25.00
2017-06-27T10:15:33.289Z,25.00
2017-06-27T10:18:00.794Z,25.00
2017-06-27T10:20:28.273Z,25.00
2017-06-27T10:22:55.837Z,25.00
2017-06-27T10:25:23.714Z,24.90
2017-06-27T10:27:51.665Z,24.90
2017-06-27T10:30:19.231Z,24.90
2017-06-27T10:32:47.121Z,25.00
2017-06-27T10:35:14.649Z,24.90
2017-06-27T10:37:42.213Z,24.90
2017-06-27T10:40:10.210Z,24.90
2017-06-27T10:42:37.737Z,24.90
2017-06-27T10:45:05.709Z,24.90
2017-06-27T10:47:33.575Z,24.90
2017-06-27T10:50:03.400Z,24.90
2017-06-27T10:52:32.245Z,24.90
2017-06-27T10:54:59.738Z,24.90
2017-06-27T10:57:28.566Z,24.90
2017-06-27T10:59:56.057Z,24.90
2017-06-27T11:02:23.633Z,24.90
2017-06-27T11:04:52.418Z,24.90
2017-06-27T11:07:19.981Z,24.80
2017-06-27T11:09:47.950Z,24.90
2017-06-27T11:12:15.820Z,24.90
2017-06-27T11:14:43.710Z,24.90
2017-06-27T11:17:11.238Z,24.90
2017-06-27T11:19:39.126Z,24.90
2017-06-27T11:22:06.613Z,24.90
2017-06-27T11:24:35.110Z,24.90
2017-06-27T11:27:02.604Z,24.90
2017-06-27T11:29:30.493Z,25.00
2017-06-27T11:31:58.025Z,25.00
2017-06-27T11:34:25.994Z,24.90
2017-06-27T11:36:53.857Z,24.90
2017-06-27T11:39:21.745Z,24.90
2017-06-27T11:41:49.233Z,24.90
2017-06-27T11:44:16.727Z,24.90
2017-06-27T11:46:44.308Z,24.90
2017-06-27T11:49:12.268Z,24.90
2017-06-27T11:51:40.129Z,24.90
2017-06-27T11:54:08.166Z,24.90
2017-06-27T11:56:35.638Z,24.90
2017-06-27T11:59:03.218Z,24.90
2017-06-27T12:01:43.049Z,24.90
2017-06-27T12:04:22.532Z,24.90
2017-06-27T12:06:54.941Z,24.90
2017-06-27T12:09:30.350Z,24.90
2017-06-27T12:11:57.826Z,24.90
2017-06-27T12:14:25.317Z,24.90
2017-06-27T12:16:52.890Z,24.90
2017-06-27T12:19:20.859Z,25.00
2017-06-27T12:21:48.361Z,25.00
2017-06-27T12:24:15.876Z,25.10
2017-06-27T12:26:43.830Z,25.30
2017-06-27T12:29:11.397Z,25.30
2017-06-27T12:31:38.899Z,25.30
2017-06-27T12:34:06.389Z,25.30
2017-06-27T12:36:33.873Z,25.30
2017-06-27T12:39:01.838Z,25.30
2017-06-27T12:41:29.399Z,25.30
2017-06-27T12:43:57.370Z,25.40
2017-06-27T12:46:26.178Z,25.40
2017-06-27T12:48:53.717Z,25.40
2017-06-27T12:51:22.541Z,25.40
2017-06-27T12:53:50.055Z,25.40
2017-06-27T12:56:17.621Z,25.40
2017-06-27T12:58:45.590Z,25.70
2017-06-27T13:01:13.558Z,25.80
2017-06-27T13:03:41.521Z,26.00
2017-06-27T13:06:09.395Z,26.00
2017-06-27T13:08:37.284Z,26.10
2017-06-27T13:11:04.761Z,26.10
2017-06-27T13:13:32.253Z,26.10
2017-06-27T13:15:59.825Z,26.20
2017-06-27T13:18:27.322Z,26.20
2017-06-27T13:20:54.793Z,26.30
2017-06-27T13:23:24.217Z,26.10
2017-06-27T13:25:51.697Z,26.00
2017-06-27T13:28:19.261Z,25.90
2017-06-27T13:30:47.241Z,25.70
2017-06-27T13:33:17.066Z,25.60
2017-06-27T13:35:44.549Z,25.70
2017-06-27T13:38:12.057Z,25.60
2017-06-27T13:40:39.608Z,25.70
2017-06-27T13:43:07.103Z,25.70
2017-06-27T13:45:34.577Z,25.60
2017-06-27T13:48:02.084Z,25.60
2017-06-27T13:50:29.953Z,25.70
2017-06-27T13:52:57.842Z,25.80
2017-06-27T13:55:26.285Z,25.80
2017-06-27T13:57:53.853Z,26.00
2017-06-27T14:00:22.673Z,26.20
2017-06-27T14:02:50.201Z,26.20
2017-06-27T14:05:18.077Z,26.10
2017-06-27T14:07:45.961Z,26.00
2017-06-27T14:10:13.486Z,26.00
2017-06-27T14:12:42.923Z,26.00
2017-06-27T14:15:10.398Z,26.10
2017-06-27T14:17:37.909Z,26.10
2017-06-27T14:20:05.789Z,26.10
2017-06-27T14:22:33.678Z,26.10
2017-06-27T14:25:01.157Z,26.20
2017-06-27T14:27:28.653Z,26.00
2017-06-27T14:29:56.641Z,25.80
2017-06-27T14:32:24.138Z,25.80
2017-06-27T14:34:51.637Z,25.80
2017-06-27T14:37:19.525Z,25.80
2017-06-27T14:39:47.001Z,25.80
2017-06-27T14:42:14.502Z,25.80
2017-06-27T14:44:42.077Z,25.80
2017-06-27T14:47:10.041Z,25.80
2017-06-27T14:49:37.605Z,25.80
2017-06-27T14:52:05.573Z,25.90
2017-06-27T14:54:33.545Z,25.90
2017-06-27T14:57:01.509Z,25.90
2017-06-27T14:59:29.478Z,26.00
2017-06-27T15:01:57.367Z,25.90
2017-06-27T15:04:24.950Z,25.90
2017-06-27T15:06:52.442Z,25.90
2017-06-27T15:09:19.959Z,25.90
2017-06-27T15:11:48.270Z,25.80
2017-06-27T15:14:16.641Z,25.80
2017-06-27T15:16:44.229Z,25.80
2017-06-27T15:19:12.092Z,25.70
2017-06-27T15:21:39.585Z,25.70
2017-06-27T15:24:07.109Z,25.70
2017-06-27T15:26:35.086Z,25.70
2017-06-27T15:29:03.043Z,25.70
2017-06-27T15:31:30.609Z,25.70
2017-06-27T15:33:58.577Z,25.60
2017-06-27T15:36:26.542Z,25.60
2017-06-27T15:38:54.414Z,25.60
2017-06-27T15:41:22.385Z,25.60
2017-06-27T15:43:50.273Z,25.60
2017-06-27T15:46:17.770Z,25.60
2017-06-27T15:48:45.241Z,25.60
2017-06-27T15:51:14.673Z,25.60
2017-06-27T15:53:42.949Z,25.60
2017-06-27T15:56:10.819Z,25.60
2017-06-27T15:58:39.694Z,25.60
2017-06-27T16:01:07.573Z,25.50
2017-06-27T16:03:35.529Z,25.50
2017-06-27T16:06:03.696Z,25.50
2017-06-27T16:08:31.565Z,25.50
2017-06-27T16:10:59.533Z,25.50
2017-06-27T16:13:27.438Z,25.50
2017-06-27T16:15:54.957Z,25.50
2017-06-27T16:18:23.233Z,25.50
2017-06-27T16:20:51.198Z,25.50
2017-06-27T16:23:18.761Z,25.50
2017-06-27T16:25:46.725Z,25.40
2017-06-27T16:28:14.205Z,25.40
2017-06-27T16:30:41.705Z,25.40
2017-06-27T16:33:09.201Z,25.40
2017-06-27T16:35:37.173Z,25.40
2017-06-27T16:38:06.172Z,25.40
2017-06-27T16:40:34.126Z,25.40
2017-06-27T16:43:02.097Z,25.40
2017-06-27T16:45:29.988Z,25.40
2017-06-27T16:47:57.481Z,25.40
2017-06-27T16:50:25.284Z,25.40
2017-06-27T16:52:53.157Z,25.40
2017-06-27T16:55:21.029Z,25.40
2017-06-27T16:57:50.874Z,25.40
2017-06-27T17:00:18.385Z,25.40
2017-06-27T17:02:48.229Z,25.40
2017-06-27T17:05:15.761Z,25.40
2017-06-27T17:07:43.657Z,25.30
2017-06-27T17:10:12.117Z,25.30
2017-06-27T17:12:40.033Z,25.30
2017-06-27T17:15:07.522Z,25.30
2017-06-27T17:17:36.133Z,25.30
2017-06-27T17:20:03.669Z,25.30
2017-06-27T17:22:32.499Z,25.30
2017-06-27T17:24:59.989Z,25.30
2017-06-27T17:27:27.483Z,25.30
2017-06-27T17:29:55.351Z,25.30
2017-06-27T17:32:25.185Z,25.30
2017-06-27T17:34:52.665Z,25.30
2017-06-27T17:37:21.127Z,25.30
2017-06-27T17:39:48.642Z,25.30
2017-06-27T17:42:18.489Z,25.30
2017-06-27T17:44:45.961Z,25.30
2017-06-27T17:47:13.456Z,25.20
2017-06-27T17:49:41.024Z,25.20
2017-06-27T17:52:11.058Z,25.20
2017-06-27T17:54:38.943Z,25.20
2017-06-27T17:57:06.430Z,25.20
2017-06-27T17:59:34.041Z,25.20
2017-06-27T18:02:02.014Z,25.20
2017-06-27T18:04:29.965Z,25.20
2017-06-27T18:06:57.861Z,25.20
2017-06-27T18:09:25.341Z,25.20
2017-06-27T18:11:52.848Z,25.20
2017-06-27T18:14:20.717Z,25.20
2017-06-27T18:16:48.686Z,25.20
2017-06-27T18:19:16.863Z,25.30
2017-06-27T18:21:44.760Z,25.30
2017-06-27T18:24:13.197Z,25.30
2017-06-27T18:26:40.711Z,25.30
2017-06-27T18:29:08.198Z,25.30
2017-06-27T18:31:35.719Z,25.30
2017-06-27T18:34:03.213Z,25.30
2017-06-27T18:36:30.997Z,25.30
2017-06-27T18:38:58.886Z,25.30
2017-06-27T18:41:26.374Z,25.30
2017-06-27T18:43:53.881Z,25.30
2017-06-27T18:46:21.769Z,25.30
2017-06-27T18:48:49.856Z,25.30
2017-06-27T18:51:17.345Z,25.30
2017-06-27T18:53:44.867Z,25.30
2017-06-27T18:56:12.397Z,25.30
2017-06-27T18:58:40.306Z,25.30
2017-06-27T19:01:07.853Z,25.30
2017-06-27T19:03:35.335Z,25.30
2017-06-27T19:06:02.831Z,25.20
2017-06-27T19:08:30.705Z,25.20
2017-06-27T19:10:58.280Z,25.20
2017-06-27T19:13:25.869Z,25.20
2017-06-27T19:15:53.391Z,25.20
2017-06-27T19:18:20.942Z,25.20
2017-06-27T19:20:48.513Z,25.20
2017-06-27T19:23:16.030Z,25.20
2017-06-27T19:25:43.527Z,25.20
2017-06-27T19:28:11.135Z,25.20
2017-06-27T19:30:40.267Z,25.20
2017-06-27T19:33:08.156Z,25.20
2017-06-27T19:35:35.630Z,25.20
2017-06-27T19:38:03.293Z,25.20
2017-06-27T19:40:32.766Z,25.20
2017-06-27T19:43:00.274Z,25.20
2017-06-27T19:45:28.110Z,25.20
2017-06-27T19:47:56.860Z,25.20
2017-06-27T19:50:24.842Z,25.20
2017-06-27T19:52:52.349Z,25.20
2017-06-27T19:55:23.490Z,25.20
2017-06-27T19:57:53.984Z,25.20
2017-06-27T20:00:38.077Z,25.20
2017-06-27T20:03:10.842Z,25.10
2017-06-27T20:05:38.651Z,25.10
2017-06-27T20:08:06.611Z,25.10
2017-06-27T20:10:34.510Z,25.10
2017-06-27T20:13:04.015Z,25.10
2017-06-27T20:15:31.565Z,25.10
2017-06-27T20:17:59.063Z,25.10
2017-06-27T20:20:26.579Z,25.10
2017-06-27T20:22:54.067Z,25.10
2017-06-27T20:25:23.533Z,25.10
2017-06-27T20:27:52.009Z,25.10
2017-06-27T20:30:19.576Z,25.10
2017-06-27T20:32:48.050Z,25.10
2017-06-27T20:35:15.592Z,25.10
2017-06-27T20:37:43.475Z,25.10
2017-06-27T20:40:11.016Z,25.10
2017-06-27T20:42:38.909Z,25.10
2017-06-27T20:45:08.409Z,25.10
2017-06-27T20:47:35.913Z,25.10
2017-06-27T20:50:03.419Z,25.10
2017-06-27T20:52:30.894Z,25.10
2017-06-27T20:54:58.408Z,25.10
2017-06-27T20:57:25.904Z,25.10
2017-06-27T20:59:53.508Z,25.10
2017-06-27T21:02:20.996Z,25.10
2017-06-27T21:04:49.850Z,25.10
2017-06-27T21:07:17.358Z,25.10
2017-06-27T21:09:44.851Z,25.10
2017-06-27T21:12:12.657Z,25.10
2017-06-27T21:14:40.143Z,25.10
2017-06-27T21:17:07.639Z,25.10
2017-06-27T21:19:35.162Z,25.10
2017-06-27T21:22:02.655Z,25.10
2017-06-27T21:24:30.166Z,25.10
2017-06-27T21:26:57.644Z,25.10
2017-06-27T21:29:26.757Z,25.10
2017-06-27T21:31:54.252Z,25.10
2017-06-27T21:34:22.127Z,25.10
2017-06-27T21:36:50.034Z,25.10
2017-06-27T21:39:17.505Z,25.10
2017-06-27T21:41:45.034Z,25.10
2017-06-27T21:44:12.525Z,25.10
2017-06-27T21:46:40.347Z,25.10
2017-06-27T21:49:07.896Z,25.10
2017-06-27T21:51:35.410Z,25.20
2017-06-27T21:54:02.914Z,25.20
2017-06-27T21:56:30.400Z,25.20
2017-06-27T21:58:57.923Z,25.10
2017-06-27T22:01:25.840Z,25.10
2017-06-27T22:03:53.649Z,25.10
2017-06-27T22:06:21.541Z,25.10
2017-06-27T22:08:49.065Z,25.10
2017-06-27T22:11:16.965Z,25.00
2017-06-27T22:13:44.462Z,25.00
2017-06-27T22:16:11.971Z,25.00
2017-06-27T22:18:39.466Z,25.00
2017-06-27T22:21:07.287Z,25.00
2017-06-27T22:23:34.775Z,25.00
2017-06-27T22:26:02.265Z,25.00
2017-06-27T22:28:29.804Z,24.90
2017-06-27T22:30:57.298Z,25.00
2017-06-27T22:33:24.834Z,25.00
2017-06-27T22:35:52.322Z,24.90
2017-06-27T22:38:20.292Z,24.80
2017-06-27T22:40:47.800Z,24.90
2017-06-27T22:43:15.293Z,24.80
2017-06-27T22:45:43.204Z,24.80
2017-06-27T22:48:10.732Z,24.90
2017-06-27T22:50:40.576Z,24.90
2017-06-27T22:53:08.065Z,24.90
2017-06-27T22:55:35.572Z,24.90
2017-06-27T22:58:03.081Z,24.90
2017-06-27T23:00:30.583Z,24.90
2017-06-27T23:02:58.089Z,24.80
2017-06-27T23:05:25.565Z,24.80
2017-06-27T23:07:53.451Z,24.70
2017-06-27T23:10:21.347Z,24.70
2017-06-27T23:12:48.845Z,24.70
2017-06-27T23:15:16.367Z,24.70
2017-06-27T23:17:43.858Z,24.70
2017-06-27T23:20:11.655Z,24.80
2017-06-27T23:22:39.532Z,24.80
2017-06-27T23:25:07.035Z,24.80
2017-06-27T23:27:34.564Z,24.70
2017-06-27T23:30:02.090Z,24.70
2017-06-27T23:32:29.962Z,24.80
2017-06-27T23:34:57.917Z,24.70
2017-06-27T23:37:26.741Z,24.70
2017-06-27T23:39:55.182Z,24.70
2017-06-27T23:42:23.993Z,24.70
2017-06-27T23:44:51.482Z,24.70
2017-06-27T23:47:18.986Z,24.70
2017-06-27T23:49:46.866Z,24.70
2017-06-27T23:52:14.730Z,24.70
2017-06-27T23:54:42.684Z,24.70
2017-06-27T23:57:10.551Z,24.70
2017-06-27T23:59:38.037Z,24.70
